Aviation Digital Data Service (ADDS)

Output produced by METARs form (1957 UTC 28 April 2017)
found at http://aviationweather.gov/adds/metars/
 
KMBS 281720Z 2818/2918 23015G22KT P6SM FEW035 
     FM282200 24009KT P6SM SCT060 OVC100 
     FM290400 32005KT P6SM -SHRA OVC040 
     FM290800 01008KT P6SM BKN022 
     FM291200 05012KT P6SM SCT022 BKN040